Time;durP1;ratioP1;P1;durP2;ratioP2;P2;SDS_P1;SDS_P2;PMS_P1;PMS_P2;Temp;Humidity;BMP_temperature;BMP_pressure;BME280_temperature;BME280_humidity;BME280_pressure;Samples;Min_cycle;Max_cycle;Signal;HPM_P1;HPM_P2
2023/05/20 00:00:22;;;;;;;;;;;;;;;17.74;56.97;99701.44;5032910;28;19982;-77
2023/05/20 00:02:47;;;;;;;;;;;;;;;17.77;56.93;99706.34;5032921;28;19945;-77
2023/05/20 00:05:13;;;;;;;;;;;;;;;17.79;56.94;99716.81;5032897;28;20362;-77
2023/05/20 00:07:38;;;;;;;;;;;;;;;17.76;56.88;99699.38;5032907;28;19984;-78
2023/05/20 00:10:04;;;;;;;;;;;;;;;17.78;57.02;99702.63;5032287;28;20359;-77
2023/05/20 00:12:29;;;;;;;;;;;;;;;17.79;56.92;99700.78;5033000;28;19916;-77
2023/05/20 00:14:54;;;;;;;;;;;;;;;17.75;56.96;99695.06;5032777;28;19909;-77
2023/05/20 00:17:19;;;;;;;;;;;;;;;17.72;57.01;99702.72;5032986;28;20560;-77
2023/05/20 00:19:45;;;;;;;;;;;;;;;17.67;57.16;99699.88;5032586;28;19992;-78
2023/05/20 00:22:10;;;;;;;;;;;;;;;17.67;57.20;99700.69;5032591;28;20305;-77
2023/05/20 00:24:35;;;;;;;;;;;;;;;17.66;57.18;99699.06;5032427;28;19963;-77
2023/05/20 00:27:02;;;;;;;;;;;;;;;17.69;57.11;99695.97;5032368;28;20302;-76
2023/05/20 00:29:27;;;;;;;;;;;;;;;17.70;57.17;99680.75;5030926;28;19924;-78
2023/05/20 00:31:53;;;;;;;;;;;;;;;17.72;57.00;99676.81;5032384;28;19909;-78
2023/05/20 00:34:18;;;;;;;;;;;;;;;17.73;56.83;99674.97;5032244;28;19952;-78
2023/05/20 00:36:44;;;;;;;;;;;;;;;17.69;56.57;99679.13;5032288;28;19909;-78
2023/05/20 00:39:09;;;;;;;;;;;;;;;17.63;56.79;99661.28;5032347;28;19952;-77
2023/05/20 00:41:34;;;;;;;;;;;;;;;17.61;56.59;99661.50;5031100;28;19915;-77
2023/05/20 00:44:00;;;;;;;;;;;;;;;17.56;56.87;99668.53;5032302;28;19971;-76
2023/05/20 00:46:26;;;;;;;;;;;;;;;17.51;56.86;99663.84;5032391;28;19909;-77
2023/05/20 00:48:52;;;;;;;;;;;;;;;17.47;56.70;99671.50;5032252;28;19909;-77
2023/05/20 00:51:17;;;;;;;;;;;;;;;17.42;57.08;99678.53;5030894;28;20306;-77
2023/05/20 00:53:43;;;;;;;;;;;;;;;17.46;56.79;99679.72;5032157;28;19983;-77
2023/05/20 00:56:08;;;;;;;;;;;;;;;17.46;56.90;99669.03;5032053;28;19917;-78
2023/05/20 00:58:35;;;;;;;;;;;;;;;17.47;56.90;99676.00;5032100;28;19992;-77
2023/05/20 01:01:01;;;;;;;;;;;;;;;17.50;56.67;99678.25;5031928;28;20366;-77
2023/05/20 01:03:27;;;;;;;;;;;;;;;17.52;56.63;99683.34;5031640;28;19996;-77
2023/05/20 01:05:52;;;;;;;;;;;;;;;17.53;56.67;99680.47;5031754;28;19909;-77
2023/05/20 01:08:17;;;;;;;;;;;;;;;17.56;56.72;99680.03;5031846;28;19974;-77
2023/05/20 01:10:45;;;;;;;;;;;;;;;17.57;56.60;99675.50;5031746;28;19909;-77
2023/05/20 01:13:14;;;;;;;;;;;;;;;17.55;56.73;99666.91;5031941;28;20421;-77
2023/05/20 01:15:40;;;;;;;;;;;;;;;17.55;56.73;99673.06;5030507;28;20321;-78
2023/05/20 01:18:07;;;;;;;;;;;;;;;17.52;56.58;99672.69;5031943;28;19909;-77
2023/05/20 01:20:34;;;;;;;;;;;;;;;17.52;56.71;99664.66;5030422;28;20342;-77
2023/05/20 01:22:59;;;;;;;;;;;;;;;17.51;56.69;99673.72;5031659;28;19936;-77
2023/05/20 01:25:25;;;;;;;;;;;;;;;17.46;56.77;99664.50;5031732;28;19909;-77
2023/05/20 01:27:51;;;;;;;;;;;;;;;17.40;56.73;99669.91;5032348;28;19917;-77
2023/05/20 01:30:17;;;;;;;;;;;;;;;17.37;56.97;99668.50;5032844;28;19996;-75
2023/05/20 01:32:46;;;;;;;;;;;;;;;17.33;56.98;99663.81;5032962;28;19960;-77
2023/05/20 01:35:12;;;;;;;;;;;;;;;17.32;56.91;99659.53;5032668;28;19916;-77
2023/05/20 01:37:38;;;;;;;;;;;;;;;17.32;57.05;99659.53;5032487;28;19902;-75
2023/05/20 01:40:07;;;;;;;;;;;;;;;17.27;56.94;99660.19;5032555;28;19916;-77
2023/05/20 01:42:32;;;;;;;;;;;;;;;17.28;57.14;99661.81;5030727;28;19953;-78
2023/05/20 01:44:58;;;;;;;;;;;;;;;17.24;56.91;99662.47;5031650;28;20400;-78
2023/05/20 01:47:23;;;;;;;;;;;;;;;17.27;57.17;99662.03;5031637;28;19909;-77
2023/05/20 01:49:51;;;;;;;;;;;;;;;17.26;57.03;99657.72;5031530;28;19942;-76
2023/05/20 01:52:17;;;;;;;;;;;;;;;17.26;56.88;99650.53;5031442;28;20397;-76
2023/05/20 01:54:42;;;;;;;;;;;;;;;17.25;56.92;99662.25;5031572;28;19955;-77
2023/05/20 01:57:07;;;;;;;;;;;;;;;17.22;57.18;99662.69;5031516;28;19909;-77
2023/05/20 01:59:32;;;;;;;;;;;;;;;17.20;57.22;99674.59;5031539;28;19909;-76
2023/05/20 02:01:58;;;;;;;;;;;;;;;17.16;57.33;99663.56;5031545;28;20050;-77
2023/05/20 02:04:23;;;;;;;;;;;;;;;17.17;57.43;99659.03;5031134;28;19913;-77
2023/05/20 02:06:48;;;;;;;;;;;;;;;17.14;57.46;99650.44;5030053;28;19913;-77
2023/05/20 02:09:13;;;;;;;;;;;;;;;17.10;57.23;99651.91;5030053;28;19913;-77
2023/05/20 02:11:39;;;;;;;;;;;;;;;17.06;57.34;99647.19;5031338;28;19959;-77
2023/05/20 02:14:04;;;;;;;;;;;;;;;17.02;57.60;99652.13;5031380;28;19955;-78
2023/05/20 02:16:29;;;;;;;;;;;;;;;17.00;57.53;99661.41;5031285;28;19916;-77
2023/05/20 02:18:57;;;;;;;;;;;;;;;17.02;57.38;99662.81;5031356;28;19916;-77
2023/05/20 02:21:22;;;;;;;;;;;;;;;17.06;57.11;99658.69;5031303;28;19931;-77
2023/05/20 02:23:47;;;;;;;;;;;;;;;17.06;57.16;99669.34;5031135;28;20378;-77
2023/05/20 02:26:13;;;;;;;;;;;;;;;17.06;57.10;99666.69;5031308;28;20317;-77
2023/05/20 02:28:42;;;;;;;;;;;;;;;17.10;56.60;99665.25;5030997;28;19970;-77
2023/05/20 02:31:07;;;;;;;;;;;;;;;17.12;56.84;99659.69;5031235;28;19909;-77
2023/05/20 02:33:32;;;;;;;;;;;;;;;17.17;56.80;99657.19;5032878;28;20055;-77
2023/05/20 02:35:58;;;;;;;;;;;;;;;17.20;56.71;99658.59;5034529;28;19909;-76
2023/05/20 02:38:23;;;;;;;;;;;;;;;17.20;56.75;99658.59;5034720;28;19948;-77
2023/05/20 02:40:48;;;;;;;;;;;;;;;17.22;56.66;99661.88;5034559;28;19913;-77
2023/05/20 02:43:13;;;;;;;;;;;;;;;17.22;56.34;99659.19;5034566;28;19967;-77
2023/05/20 02:45:39;;;;;;;;;;;;;;;17.21;56.55;99660.22;5034559;28;19946;-76
2023/05/20 02:48:05;;;;;;;;;;;;;;;17.19;56.52;99659.63;5034576;28;19909;-76
2023/05/20 02:50:30;;;;;;;;;;;;;;;17.19;56.58;99668.44;5034616;28;19984;-77
2023/05/20 02:52:56;;;;;;;;;;;;;;;17.19;56.57;99673.78;5034186;28;19915;-77
2023/05/20 02:55:22;;;;;;;;;;;;;;;17.15;56.85;99670.75;5034306;28;19909;-76
2023/05/20 02:57:47;;;;;;;;;;;;;;;17.13;56.83;99675.47;5034090;28;20347;-77
2023/05/20 03:00:13;;;;;;;;;;;;;;;17.11;56.81;99677.53;5033982;28;20000;-77
2023/05/20 03:02:38;;;;;;;;;;;;;;;17.12;56.92;99675.69;5034059;28;19966;-76
2023/05/20 03:05:04;;;;;;;;;;;;;;;17.10;56.93;99681.25;5034061;28;20397;-77
2023/05/20 03:07:30;;;;;;;;;;;;;;;17.10;57.01;99694.59;5034221;28;19913;-77
2023/05/20 03:09:57;;;;;;;;;;;;;;;17.07;57.03;99686.16;5032699;28;20352;-77
2023/05/20 03:12:25;;;;;;;;;;;;;;;17.04;57.02;99684.75;5034154;28;20326;-77
2023/05/20 03:14:53;;;;;;;;;;;;;;;17.09;56.96;99684.09;5034451;28;19992;-77
2023/05/20 03:17:19;;;;;;;;;;;;;;;17.09;57.02;99687.63;5032950;28;20372;-77
2023/05/20 03:19:44;;;;;;;;;;;;;;;17.12;57.02;99673.84;5034102;28;20004;-77
2023/05/20 03:22:10;;;;;;;;;;;;;;;17.11;56.98;99682.88;5034245;28;19909;-77
2023/05/20 03:24:35;;;;;;;;;;;;;;;17.11;56.93;99677.53;5034309;28;20009;-77
2023/05/20 03:27:00;;;;;;;;;;;;;;;17.10;57.01;99683.91;5032616;28;19909;-77
2023/05/20 03:29:26;;;;;;;;;;;;;;;17.11;57.05;99684.72;5033411;28;19917;-77
2023/05/20 03:31:51;;;;;;;;;;;;;;;17.11;56.91;99685.56;5033627;28;19909;-77
2023/05/20 03:34:16;;;;;;;;;;;;;;;17.10;56.96;99689.25;5032482;28;19915;-77
2023/05/20 03:36:41;;;;;;;;;;;;;;;17.12;56.81;99686.38;5033723;28;19913;-77
2023/05/20 03:39:07;;;;;;;;;;;;;;;17.14;56.82;99686.97;5033394;28;19909;-77
2023/05/20 03:41:32;;;;;;;;;;;;;;;17.18;56.54;99684.69;5033610;28;20291;-77
2023/05/20 03:43:57;;;;;;;;;;;;;;;17.14;56.75;99677.13;5033391;28;19913;-77
2023/05/20 03:49:07;;;;;;;;;;;;;;;17.21;56.63;99681.56;5033637;28;20432;-77
2023/05/20 03:51:32;;;;;;;;;;;;;;;17.19;56.48;99691.66;5033520;28;19912;-76
2023/05/20 03:53:57;;;;;;;;;;;;;;;17.16;56.39;99695.56;5033339;28;19909;-76
2023/05/20 03:56:23;;;;;;;;;;;;;;;17.15;56.53;99700.09;5033976;28;19916;-77
2023/05/20 03:58:48;;;;;;;;;;;;;;;17.10;56.76;99699.91;5033222;28;19959;-77
2023/05/20 04:01:14;;;;;;;;;;;;;;;17.11;56.62;99692.72;5033395;28;20405;-77
2023/05/20 04:03:40;;;;;;;;;;;;;;;17.10;56.70;99704.44;5032936;28;19924;-76
2023/05/20 04:06:06;;;;;;;;;;;;;;;17.13;56.73;99696.00;5033067;28;19944;-77
2023/05/20 04:08:31;;;;;;;;;;;;;;;17.13;56.69;99696.00;5033024;28;20440;-76
2023/05/20 04:10:56;;;;;;;;;;;;;;;17.15;56.66;99696.59;5033010;28;19952;-77
2023/05/20 04:13:24;;;;;;;;;;;;;;;17.10;56.88;99697.25;5033261;28;20306;-76
2023/05/20 04:15:51;;;;;;;;;;;;;;;17.08;56.89;99712.63;5033544;28;19919;-77
2023/05/20 04:18:16;;;;;;;;;;;;;;;17.08;57.04;99706.47;5033130;28;19913;-77
2023/05/20 04:20:42;;;;;;;;;;;;;;;17.08;57.19;99701.13;5033029;28;19939;-76
2023/05/20 04:23:07;;;;;;;;;;;;;;;17.11;57.25;99690.88;5033220;28;19912;-76
2023/05/20 04:25:33;;;;;;;;;;;;;;;17.16;57.07;99695.56;5033425;28;19916;-76
2023/05/20 04:27:59;;;;;;;;;;;;;;;17.19;57.24;99694.31;5032684;28;20000;-76
2023/05/20 04:30:25;;;;;;;;;;;;;;;17.23;57.12;99692.84;5032556;28;19959;-76
2023/05/20 04:32:50;;;;;;;;;;;;;;;17.24;56.92;99697.97;5032449;28;19959;-77
2023/05/20 04:35:15;;;;;;;;;;;;;;;17.26;56.75;99697.75;5032410;28;20018;-76
2023/05/20 04:37:41;;;;;;;;;;;;;;;17.30;56.75;99701.63;5032258;28;19901;-77
2023/05/20 04:40:08;;;;;;;;;;;;;;;17.37;56.63;99694.38;5032194;28;19916;-77
2023/05/20 04:42:33;;;;;;;;;;;;;;;17.41;56.45;99703.56;5032186;28;19913;-77
2023/05/20 04:45:00;;;;;;;;;;;;;;;17.46;56.14;99704.56;5032772;28;20011;-77
2023/05/20 04:47:26;;;;;;;;;;;;;;;17.48;56.21;99712.34;5032295;28;19909;-77
2023/05/20 04:49:52;;;;;;;;;;;;;;;17.54;56.19;99716.81;5032339;28;19948;-76
2023/05/20 04:52:17;;;;;;;;;;;;;;;17.59;55.75;99716.97;5032244;28;19948;-76
2023/05/20 04:54:43;;;;;;;;;;;;;;;17.63;55.68;99722.69;5031862;28;20401;-78
2023/05/20 04:57:08;;;;;;;;;;;;;;;17.65;55.42;99716.09;5031659;28;19908;-76
2023/05/20 04:59:33;;;;;;;;;;;;;;;17.66;55.75;99717.75;5032084;28;19916;-76
2023/05/20 05:01:58;;;;;;;;;;;;;;;17.69;55.44;99720.00;5032113;28;19919;-77
2023/05/20 05:04:24;;;;;;;;;;;;;;;17.76;55.59;99720.75;5031934;28;20372;-77
2023/05/20 05:06:49;;;;;;;;;;;;;;;17.77;55.51;99714.38;5032086;28;19913;-76
2023/05/20 05:09:14;;;;;;;;;;;;;;;17.82;55.39;99711.03;5032064;28;20367;-76
2023/05/20 05:11:40;;;;;;;;;;;;;;;17.79;55.08;99722.16;5032005;28;19915;-77
2023/05/20 05:14:05;;;;;;;;;;;;;;;17.86;55.54;99727.47;5031795;28;19916;-77
2023/05/20 05:16:30;;;;;;;;;;;;;;;17.90;55.34;99723.31;5031598;28;19913;-77
2023/05/20 05:18:56;;;;;;;;;;;;;;;17.93;55.24;99728.22;5031780;28;19967;-76
2023/05/20 05:21:21;;;;;;;;;;;;;;;17.95;55.13;99726.13;5031784;28;20282;-77
2023/05/20 05:23:46;;;;;;;;;;;;;;;17.97;55.24;99726.72;5030453;28;19952;-77
2023/05/20 05:26:11;;;;;;;;;;;;;;;17.98;55.15;99721.16;5031690;28;19909;-78
2023/05/20 05:28:37;;;;;;;;;;;;;;;18.00;55.21;99726.28;5032302;28;19924;-77
2023/05/20 05:31:02;;;;;;;;;;;;;;;17.98;55.22;99728.38;5032623;28;20313;-76
2023/05/20 05:33:27;;;;;;;;;;;;;;;18.02;55.34;99726.88;5032633;28;19909;-77
2023/05/20 05:35:52;;;;;;;;;;;;;;;18.09;55.27;99731.13;5031837;28;19984;-77
2023/05/20 05:38:18;;;;;;;;;;;;;;;18.14;55.31;99738.47;5032143;28;19909;-77
2023/05/20 05:40:43;;;;;;;;;;;;;;;18.22;55.30;99737.34;5032572;28;19909;-77
2023/05/20 05:43:08;;;;;;;;;;;;;;;18.26;54.92;99742.03;5031983;28;19924;-76
2023/05/20 05:45:34;;;;;;;;;;;;;;;18.29;54.96;99740.75;5031931;28;19936;-76
2023/05/20 05:47:59;;;;;;;;;;;;;;;18.34;54.99;99743.59;5031620;28;19913;-77
2023/05/20 05:50:24;;;;;;;;;;;;;;;18.38;54.82;99748.25;5031649;28;20348;-77
2023/05/20 05:52:50;;;;;;;;;;;;;;;18.39;54.52;99751.75;5031400;28;19909;-77
2023/05/20 05:55:15;;;;;;;;;;;;;;;18.40;54.58;99743.50;5031559;28;19967;-76
2023/05/20 05:57:40;;;;;;;;;;;;;;;18.42;54.70;99746.78;5031404;28;19916;-76
2023/05/20 06:00:06;;;;;;;;;;;;;;;18.48;54.76;99741.56;5031509;28;19916;-76
2023/05/20 06:02:34;;;;;;;;;;;;;;;18.52;54.70;99742.75;5031600;28;19966;-76
2023/05/20 06:05:01;;;;;;;;;;;;;;;18.55;54.91;99744.97;5031348;28;20410;-76
2023/05/20 06:07:26;;;;;;;;;;;;;;;18.60;54.88;99743.28;5031496;28;19916;-76
2023/05/20 06:09:51;;;;;;;;;;;;;;;18.68;54.91;99739.53;5035289;28;19909;-78
2023/05/20 06:12:16;;;;;;;;;;;;;;;18.72;54.65;99743.38;5035210;28;19959;-77
2023/05/20 06:14:42;;;;;;;;;;;;;;;18.76;54.52;99749.09;5034930;28;19913;-77
2023/05/20 06:17:07;;;;;;;;;;;;;;;18.80;54.45;99755.63;5034919;28;19959;-77
2023/05/20 06:19:32;;;;;;;;;;;;;;;18.84;54.65;99754.94;5035043;28;19909;-76
2023/05/20 06:21:57;;;;;;;;;;;;;;;18.87;53.89;99759.84;5035150;28;19963;-77
2023/05/20 06:24:23;;;;;;;;;;;;;;;18.90;54.31;99756.72;5034900;28;19920;-76
2023/05/20 06:26:49;;;;;;;;;;;;;;;18.96;54.90;99760.34;5035032;28;20310;-78
2023/05/20 06:29:14;;;;;;;;;;;;;;;19.03;55.11;99759.19;5035505;28;19923;-76
2023/05/20 06:31:39;;;;;;;;;;;;;;;19.07;54.76;99751.53;5035666;28;19995;-76
2023/05/20 06:34:05;;;;;;;;;;;;;;;19.13;54.28;99745.25;5034028;28;19909;-77
2023/05/20 06:36:31;;;;;;;;;;;;;;;19.16;54.32;99741.31;5035800;28;19921;-77
2023/05/20 06:38:56;;;;;;;;;;;;;;;19.17;54.53;99746.44;5035376;28;20298;-77
2023/05/20 06:41:22;;;;;;;;;;;;;;;19.26;54.57;99741.56;5035767;28;19917;-78
2023/05/20 06:43:47;;;;;;;;;;;;;;;19.33;54.09;99747.66;5034576;28;20378;-76
2023/05/20 06:46:12;;;;;;;;;;;;;;;19.41;54.19;99741.16;5034649;28;19949;-77
2023/05/20 06:48:37;;;;;;;;;;;;;;;19.38;53.46;99739.75;5034408;28;19963;-77
2023/05/20 06:51:06;;;;;;;;;;;;;;;19.36;53.65;99742.66;5034422;28;19909;-77
2023/05/20 06:53:31;;;;;;;;;;;;;;;19.40;53.15;99743.03;5032910;28;19948;-77
2023/05/20 06:55:56;;;;;;;;;;;;;;;19.47;53.80;99741.06;5034108;28;19968;-77
2023/05/20 06:58:22;;;;;;;;;;;;;;;19.56;53.92;99744.22;5034274;28;19909;-76
2023/05/20 07:00:47;;;;;;;;;;;;;;;19.60;53.45;99748.06;5034372;28;19909;-77
2023/05/20 07:03:12;;;;;;;;;;;;;;;19.71;53.62;99733.88;5034078;28;19913;-77
2023/05/20 07:05:37;;;;;;;;;;;;;;;19.76;53.34;99741.22;5034008;28;19909;-77
2023/05/20 07:08:03;;;;;;;;;;;;;;;19.79;53.36;99730.03;5033969;28;19909;-77
2023/05/20 07:10:28;;;;;;;;;;;;;;;19.83;53.61;99718.63;5033930;28;20006;-77
2023/05/20 07:12:53;;;;;;;;;;;;;;;19.90;53.30;99721.16;5033844;28;19916;-77
2023/05/20 07:15:19;;;;;;;;;;;;;;;19.99;53.40;99719.75;5033688;28;19928;-77
2023/05/20 07:17:44;;;;;;;;;;;;;;;20.06;53.26;99730.34;5033753;28;19944;-77
2023/05/20 07:20:09;;;;;;;;;;;;;;;20.10;53.26;99734.22;5033614;28;19909;-77
2023/05/20 07:22:34;;;;;;;;;;;;;;;20.13;53.20;99725.72;5033782;28;19916;-77
2023/05/20 07:25:00;;;;;;;;;;;;;;;20.20;53.23;99734.44;5032455;28;19909;-77
2023/05/20 07:27:25;;;;;;;;;;;;;;;20.24;52.97;99732.91;5033445;28;19916;-77
2023/05/20 07:29:50;;;;;;;;;;;;;;;20.29;53.54;99731.16;5033387;28;20385;-77
2023/05/20 07:32:16;;;;;;;;;;;;;;;20.38;52.74;99733.47;5033344;28;19988;-77
2023/05/20 07:34:41;;;;;;;;;;;;;;;20.42;52.22;99737.34;5033391;28;19917;-77
2023/05/20 07:37:08;;;;;;;;;;;;;;;20.48;52.02;99734.53;5033577;28;19956;-77
2023/05/20 07:39:34;;;;;;;;;;;;;;;20.55;52.07;99729.03;5033536;28;19959;-78
2023/05/20 07:44:43;;;;;;;;;;;;;;;20.67;52.58;99740.53;5033238;28;19959;-77
2023/05/20 07:47:09;;;;;;;;;;;;;;;20.76;52.63;99736.41;5033293;28;19909;-77
2023/05/20 07:49:34;;;;;;;;;;;;;;;20.88;52.60;99725.66;5033283;28;19962;-77
2023/05/20 07:51:59;;;;;;;;;;;;;;;20.82;49.92;99732.78;5033507;28;19909;-77
2023/05/20 07:54:25;;;;;;;;;;;;;;;20.89;49.25;99728.09;5033571;28;19913;-77
2023/05/20 07:56:50;;;;;;;;;;;;;;;20.93;49.79;99737.28;5050578;28;19913;-77
2023/05/20 07:59:16;;;;;;;;;;;;;;;21.05;50.66;99731.03;5052936;28;20320;-78
2023/05/20 08:01:41;;;;;;;;;;;;;;;21.18;49.72;99725.38;5048726;28;19919;-77
2023/05/20 08:04:07;;;;;;;;;;;;;;;21.23;48.93;99730.84;5050821;28;19948;-78
2023/05/20 08:06:34;;;;;;;;;;;;;;;21.18;48.71;99728.88;5051555;28;19966;-77
2023/05/20 08:09:00;;;;;;;;;;;;;;;21.15;47.70;99739.28;5052920;28;19913;-77
2023/05/20 08:11:25;;;;;;;;;;;;;;;21.13;47.50;99741.38;5044832;28;19939;-78
2023/05/20 08:13:50;;;;;;;;;;;;;;;21.18;47.72;99741.47;5051583;28;19943;-77
2023/05/20 08:16:15;;;;;;;;;;;;;;;21.24;48.26;99745.91;5051461;28;19909;-77
2023/05/20 08:18:41;;;;;;;;;;;;;;;21.31;48.42;99735.00;5050004;28;19912;-77
2023/05/20 08:21:06;;;;;;;;;;;;;;;21.40;47.99;99723.63;5050891;28;20305;-78
2023/05/20 08:23:32;;;;;;;;;;;;;;;21.51;48.06;99725.41;5052818;28;20008;-78
2023/05/20 08:26:00;;;;;;;;;;;;;;;21.62;47.18;99739.84;5052368;28;19909;-78
2023/05/20 08:28:26;;;;;;;;;;;;;;;21.73;46.83;99728.19;5047104;28;19991;-78
2023/05/20 08:30:52;;;;;;;;;;;;;;;21.93;46.34;99726.84;5051774;28;19991;-77
2023/05/20 08:33:18;;;;;;;;;;;;;;;22.10;46.01;99739.22;5051033;28;19963;-77
2023/05/20 08:35:43;;;;;;;;;;;;;;;22.23;44.37;99731.84;5051023;28;19908;-78
2023/05/20 08:38:08;;;;;;;;;;;;;;;22.12;43.78;99725.53;5049925;28;19916;-77
2023/05/20 08:40:34;;;;;;;;;;;;;;;22.17;44.66;99745.22;5052397;28;20309;-76
2023/05/20 08:43:00;;;;;;;;;;;;;;;22.13;44.38;99733.34;5052406;28;19917;-78
2023/05/20 08:45:27;;;;;;;;;;;;;;;22.02;44.83;99728.03;5047813;28;19962;-78
2023/05/20 08:47:53;;;;;;;;;;;;;;;22.16;45.27;99722.09;5050033;28;19916;-78
2023/05/20 08:50:18;;;;;;;;;;;;;;;22.30;44.63;99719.06;5047729;28;20301;-78
2023/05/20 08:52:44;;;;;;;;;;;;;;;22.38;44.46;99718.63;5051634;28;19913;-78
2023/05/20 08:55:13;;;;;;;;;;;;;;;22.58;44.65;99729.63;5038261;28;19917;-78
2023/05/20 08:57:40;;;;;;;;;;;;;;;22.76;42.80;99729.28;5051755;28;19911;-77
2023/05/20 09:00:12;;;;;;;;;;;;;;;22.89;44.15;99720.00;5041369;28;20275;-77
2023/05/20 09:02:37;;;;;;;;;;;;;;;23.00;43.99;99723.63;5030909;28;20291;-77
2023/05/20 09:05:04;;;;;;;;;;;;;;;23.18;42.89;99727.84;5031968;28;19923;-77
2023/05/20 09:07:29;;;;;;;;;;;;;;;23.27;42.67;99731.69;5031909;28;19915;-77
2023/05/20 09:09:55;;;;;;;;;;;;;;;23.20;42.46;99740.00;5032086;28;19909;-78
2023/05/20 09:12:20;;;;;;;;;;;;;;;23.09;43.27;99733.69;5031914;28;19948;-78
2023/05/20 09:14:46;;;;;;;;;;;;;;;22.93;43.85;99739.16;5030651;28;19936;-77
2023/05/20 09:17:11;;;;;;;;;;;;;;;22.68;42.92;99735.09;5031726;28;19913;-78
2023/05/20 09:19:37;;;;;;;;;;;;;;;22.54;43.75;99731.19;5031787;28;19916;-78
2023/05/20 09:22:02;;;;;;;;;;;;;;;22.36;44.14;99732.31;5031855;28;20373;-77
2023/05/20 09:24:28;;;;;;;;;;;;;;;22.54;43.42;99736.56;5031651;28;20417;-77
2023/05/20 09:26:53;;;;;;;;;;;;;;;22.65;42.57;99732.09;5031676;28;19996;-78
2023/05/20 09:29:20;;;;;;;;;;;;;;;22.62;43.40;99730.75;5031290;28;20407;-77
2023/05/20 09:31:46;;;;;;;;;;;;;;;22.61;44.13;99726.41;5031590;28;19988;-77
2023/05/20 09:34:11;;;;;;;;;;;;;;;22.57;43.90;99722.59;5031582;28;19956;-77
2023/05/20 09:36:38;;;;;;;;;;;;;;;22.38;45.08;99724.00;5031555;28;19996;-78
2023/05/20 09:39:04;;;;;;;;;;;;;;;22.22;44.26;99724.84;5031519;28;20393;-77
2023/05/20 09:41:32;;;;;;;;;;;;;;;22.09;45.41;99726.84;5031651;28;19959;-78
2023/05/20 09:43:58;;;;;;;;;;;;;;;21.92;45.31;99720.66;5035523;28;19913;-77
2023/05/20 09:46:24;;;;;;;;;;;;;;;21.82;44.62;99723.19;5035692;28;20000;-77
2023/05/20 09:48:49;;;;;;;;;;;;;;;21.76;45.90;99722.31;5035686;28;19908;-78
2023/05/20 09:51:15;;;;;;;;;;;;;;;21.67;45.36;99717.59;5035651;28;19909;-78
2023/05/20 09:53:41;;;;;;;;;;;;;;;21.60;46.06;99723.16;5034438;28;19916;-77
2023/05/20 09:56:07;;;;;;;;;;;;;;;21.51;45.84;99717.34;5055515;28;20305;-77
2023/05/20 09:58:34;;;;;;;;;;;;;;;21.44;46.42;99730.13;5056075;28;19909;-77
2023/05/20 10:01:00;;;;;;;;;;;;;;;21.42;46.20;99728.75;5056007;28;19947;-77
2023/05/20 10:03:26;;;;;;;;;;;;;;;21.43;46.52;99723.13;5056086;28;20324;-77
2023/05/20 10:06:19;;;;;;;;;;;;;;;21.48;46.74;99720.53;5056404;28;20002;-77
2023/05/20 10:08:47;;;;;;;;;;;;;;;21.45;46.07;99722.88;5055783;28;19912;-77
2023/05/20 10:11:13;;;;;;;;;;;;;;;21.43;46.75;99717.75;5055960;28;19909;-77
2023/05/20 10:13:57;;;;;;;;;;;;;;;21.44;47.08;99711.31;5054929;28;20416;-77
2023/05/20 10:16:29;;;;;;;;;;;;;;;21.48;46.96;99707.09;5054027;28;20062;-78
2023/05/20 10:19:06;;;;;;;;;;;;;;;21.61;46.61;99707.84;5055056;28;19956;-77
2023/05/20 10:21:31;;;;;;;;;;;;;;;21.67;45.10;99698.78;5054840;28;19915;-78
2023/05/20 10:24:07;;;;;;;;;;;;;;;21.92;45.54;99701.03;5054608;28;19912;-77
2023/05/20 10:26:39;;;;;;;;;;;;;;;22.26;44.18;99701.75;5054719;28;19917;-78
2023/05/20 10:29:15;;;;;;;;;;;;;;;22.49;44.42;99694.28;5053216;28;20336;-78
2023/05/20 10:31:44;;;;;;;;;;;;;;;22.74;43.64;99693.72;5054630;28;19908;-77
2023/05/20 10:34:13;;;;;;;;;;;;;;;23.05;41.84;99686.81;5054647;28;20018;-77
2023/05/20 10:36:44;;;;;;;;;;;;;;;23.25;43.03;99688.84;5053192;28;20310;-78
2023/05/20 10:39:14;;;;;;;;;;;;;;;23.43;42.46;99687.63;5054455;28;19996;-78
2023/05/20 10:41:39;;;;;;;;;;;;;;;23.39;41.74;99683.84;5054592;28;20023;-78
2023/05/20 10:44:05;;;;;;;;;;;;;;;23.40;41.49;99685.47;5054290;28;20421;-77
2023/05/20 10:46:31;;;;;;;;;;;;;;;23.26;41.68;99678.88;5054262;28;19909;-77
2023/05/20 10:48:57;;;;;;;;;;;;;;;22.98;42.65;99670.00;5054146;28;20291;-77
2023/05/20 10:51:23;;;;;;;;;;;;;;;22.92;42.33;99670.22;5053991;28;19987;-77
2023/05/20 10:53:51;;;;;;;;;;;;;;;22.90;41.54;99677.75;5053588;28;19909;-78
2023/05/20 10:56:20;;;;;;;;;;;;;;;22.79;42.59;99682.19;5054161;28;20283;-78
2023/05/20 10:58:46;;;;;;;;;;;;;;;22.87;43.01;99678.25;5054275;28;19908;-78
2023/05/20 11:01:12;;;;;;;;;;;;;;;22.85;41.94;99669.63;5054191;28;19908;-77
2023/05/20 11:03:39;;;;;;;;;;;;;;;22.88;42.99;99669.13;5054017;28;20004;-78
2023/05/20 11:06:14;;;;;;;;;;;;;;;22.82;43.00;99665.56;5054125;28;20007;-78
2023/05/20 11:08:39;;;;;;;;;;;;;;;22.77;42.75;99669.00;5054109;28;19912;-77
2023/05/20 11:11:05;;;;;;;;;;;;;;;22.74;41.82;99656.03;5053976;28;19915;-77
2023/05/20 11:13:30;;;;;;;;;;;;;;;22.72;43.03;99663.56;5053005;28;19908;-78
2023/05/20 11:15:57;;;;;;;;;;;;;;;22.81;43.15;99653.16;5054436;28;19913;-77
2023/05/20 11:18:22;;;;;;;;;;;;;;;22.86;41.90;99660.47;5054536;28;20390;-77
2023/05/20 11:20:47;;;;;;;;;;;;;;;22.94;43.33;99660.00;5054841;28;19915;-78
2023/05/20 11:23:13;;;;;;;;;;;;;;;23.03;43.54;99658.47;5054644;28;19920;-77
2023/05/20 11:25:38;;;;;;;;;;;;;;;23.12;42.88;99662.34;5054575;28;20298;-77
2023/05/20 11:28:07;;;;;;;;;;;;;;;23.13;41.34;99651.31;5052439;28;19917;-77
2023/05/20 11:30:32;;;;;;;;;;;;;;;23.41;40.45;99650.16;5053372;28;19908;-78
2023/05/20 11:32:58;;;;;;;;;;;;;;;23.64;42.00;99653.56;5053365;28;20393;-77
2023/05/20 11:35:24;;;;;;;;;;;;;;;23.80;41.37;99644.53;5053610;28;19950;-77
2023/05/20 11:38:03;;;;;;;;;;;;;;;24.14;39.55;99644.94;5053619;28;19912;-78
2023/05/20 11:40:29;;;;;;;;;;;;;;;24.49;39.04;99646.16;5053304;28;20400;-77
2023/05/20 11:42:56;;;;;;;;;;;;;;;24.58;37.40;99650.78;5053385;28;19956;-78
2023/05/20 11:45:21;;;;;;;;;;;;;;;24.33;40.60;99648.00;5053302;28;19916;-77
2023/05/20 11:47:57;;;;;;;;;;;;;;;24.11;40.47;99645.47;5053526;28;19908;-78
2023/05/20 11:50:22;;;;;;;;;;;;;;;23.88;39.92;99641.31;5053330;28;19909;-78
2023/05/20 11:52:54;;;;;;;;;;;;;;;23.71;39.50;99646.88;5053385;28;20399;-77
2023/05/20 11:55:19;;;;;;;;;;;;;;;23.61;41.60;99646.00;5051865;28;19900;-77
2023/05/20 11:57:45;;;;;;;;;;;;;;;23.52;40.77;99647.53;5053165;28;19908;-75
2023/05/20 12:00:10;;;;;;;;;;;;;;;23.46;42.10;99647.50;5051718;28;19900;-78
2023/05/20 12:02:36;;;;;;;;;;;;;;;23.29;41.22;99643.34;5053132;28;19965;-77
2023/05/20 12:05:01;;;;;;;;;;;;;;;23.29;40.94;99646.03;5052151;28;19967;-77
2023/05/20 12:07:27;;;;;;;;;;;;;;;23.23;41.97;99647.88;5051121;28;19932;-77
2023/05/20 12:09:52;;;;;;;;;;;;;;;23.14;42.45;99642.16;5053048;28;19958;-78
2023/05/20 12:12:18;;;;;;;;;;;;;;;23.05;42.64;99648.28;5053236;28;19956;-77
2023/05/20 12:14:44;;;;;;;;;;;;;;;22.94;42.82;99651.94;5052799;28;19908;-77
2023/05/20 12:17:09;;;;;;;;;;;;;;;22.86;42.78;99644.31;5052648;28;20504;-77
2023/05/20 12:19:34;;;;;;;;;;;;;;;22.81;42.85;99632.44;5052563;28;19909;-77
2023/05/20 12:22:01;;;;;;;;;;;;;;;22.85;43.08;99637.31;5052464;28;19908;-77
2023/05/20 12:24:26;;;;;;;;;;;;;;;22.85;43.09;99640.81;5052542;28;19919;-78
2023/05/20 12:26:51;;;;;;;;;;;;;;;22.83;42.70;99641.06;5052427;28;20003;-77
2023/05/20 12:29:16;;;;;;;;;;;;;;;22.78;42.37;99637.50;5052412;28;19974;-77
2023/05/20 12:31:42;;;;;;;;;;;;;;;22.72;42.68;99633.94;5052523;28;20382;-78
2023/05/20 12:34:07;;;;;;;;;;;;;;;22.69;43.44;99639.84;5052539;28;19919;-78
2023/05/20 12:36:32;;;;;;;;;;;;;;;22.69;43.71;99641.72;5051074;28;19916;-78
2023/05/20 12:38:57;;;;;;;;;;;;;;;22.67;43.82;99641.97;5052384;28;20000;-77
2023/05/20 12:41:23;;;;;;;;;;;;;;;22.65;42.69;99627.97;5052306;28;19915;-77
2023/05/20 12:43:48;;;;;;;;;;;;;;;22.68;43.09;99626.63;5053366;28;20310;-78
2023/05/20 12:46:13;;;;;;;;;;;;;;;22.72;43.13;99616.97;5053399;28;19965;-76